sensor_id;sensor_type;location;lat;lon;timestamp;temperature;humidity
41060;DHT22;26811;53.160;8.202;2022-09-06T00:01:54;18.70;97.40
41060;DHT22;26811;53.160;8.202;2022-09-06T00:06:55;18.60;97.50
41060;DHT22;26811;53.160;8.202;2022-09-06T00:11:55;18.50;97.60
41060;DHT22;26811;53.160;8.202;2022-09-06T00:16:56;18.50;97.70
41060;DHT22;26811;53.160;8.202;2022-09-06T00:21:56;18.50;97.70
41060;DHT22;26811;53.160;8.202;2022-09-06T00:26:57;18.40;97.80
41060;DHT22;26811;53.160;8.202;2022-09-06T00:31:57;18.40;97.90
41060;DHT22;26811;53.160;8.202;2022-09-06T00:36:58;18.40;98.00
41060;DHT22;26811;53.160;8.202;2022-09-06T00:41:59;18.40;98.10
41060;DHT22;26811;53.160;8.202;2022-09-06T00:47:00;18.30;98.20
41060;DHT22;26811;53.160;8.202;2022-09-06T00:52:05;18.30;98.20
41060;DHT22;26811;53.160;8.202;2022-09-06T00:57:08;18.40;98.20
41060;DHT22;26811;53.160;8.202;2022-09-06T01:02:09;18.30;98.40
41060;DHT22;26811;53.160;8.202;2022-09-06T01:07:19;18.20;98.50
41060;DHT22;26811;53.160;8.202;2022-09-06T01:12:40;18.20;98.70
41060;DHT22;26811;53.160;8.202;2022-09-06T01:23:43;18.10;99.40
41060;DHT22;26811;53.160;8.202;2022-09-06T01:28:47;18.00;99.30
41060;DHT22;26811;53.160;8.202;2022-09-06T01:34:10;18.00;99.40
41060;DHT22;26811;53.160;8.202;2022-09-06T01:39:33;17.90;99.60
41060;DHT22;26811;53.160;8.202;2022-09-06T01:44:35;17.90;99.60
41060;DHT22;26811;53.160;8.202;2022-09-06T01:55:22;17.70;99.90
41060;DHT22;26811;53.160;8.202;2022-09-06T02:00:26;17.70;99.90
41060;DHT22;26811;53.160;8.202;2022-09-06T02:05:47;17.70;99.90
41060;DHT22;26811;53.160;8.202;2022-09-06T02:11:01;17.60;99.90
41060;DHT22;26811;53.160;8.202;2022-09-06T02:16:05;17.50;99.90
41060;DHT22;26811;53.160;8.202;2022-09-06T02:21:09;17.50;99.90
41060;DHT22;26811;53.160;8.202;2022-09-06T02:26:14;17.50;99.90
41060;DHT22;26811;53.160;8.202;2022-09-06T02:31:36;17.40;99.90
41060;DHT22;26811;53.160;8.202;2022-09-06T02:36:38;17.40;99.90
41060;DHT22;26811;53.160;8.202;2022-09-06T02:41:43;17.40;99.90
41060;DHT22;26811;53.160;8.202;2022-09-06T02:46:44;17.40;99.90
41060;DHT22;26811;53.160;8.202;2022-09-06T02:51:45;17.40;99.90
41060;DHT22;26811;53.160;8.202;2022-09-06T02:56:45;17.30;99.90
41060;DHT22;26811;53.160;8.202;2022-09-06T03:01:46;17.30;99.90
41060;DHT22;26811;53.160;8.202;2022-09-06T03:06:46;17.30;99.90
41060;DHT22;26811;53.160;8.202;2022-09-06T03:11:47;17.30;99.90
41060;DHT22;26811;53.160;8.202;2022-09-06T03:16:48;17.30;99.90
41060;DHT22;26811;53.160;8.202;2022-09-06T03:21:48;17.30;99.90
41060;DHT22;26811;53.160;8.202;2022-09-06T03:26:49;17.40;99.90
41060;DHT22;26811;53.160;8.202;2022-09-06T03:31:49;17.40;99.90
41060;DHT22;26811;53.160;8.202;2022-09-06T03:36:50;17.50;99.90
41060;DHT22;26811;53.160;8.202;2022-09-06T03:41:50;17.50;99.90
41060;DHT22;26811;53.160;8.202;2022-09-06T03:46:51;17.60;99.90
41060;DHT22;26811;53.160;8.202;2022-09-06T03:51:51;17.60;99.90
41060;DHT22;26811;53.160;8.202;2022-09-06T03:56:52;17.60;99.90
41060;DHT22;26811;53.160;8.202;2022-09-06T04:01:53;17.60;99.90
41060;DHT22;26811;53.160;8.202;2022-09-06T04:06:53;17.60;99.90
41060;DHT22;26811;53.160;8.202;2022-09-06T04:11:54;17.60;99.90
41060;DHT22;26811;53.160;8.202;2022-09-06T04:16:54;17.60;99.90
41060;DHT22;26811;53.160;8.202;2022-09-06T04:21:55;17.60;99.90
41060;DHT22;26811;53.160;8.202;2022-09-06T04:26:55;17.60;99.90
41060;DHT22;26811;53.160;8.202;2022-09-06T04:31:56;17.60;99.90
41060;DHT22;26811;53.160;8.202;2022-09-06T04:36:56;17.50;99.90
41060;DHT22;26811;53.160;8.202;2022-09-06T04:41:57;17.50;99.90
41060;DHT22;26811;53.160;8.202;2022-09-06T04:47:03;17.50;99.90
41060;DHT22;26811;53.160;8.202;2022-09-06T04:52:04;17.40;99.90
41060;DHT22;26811;53.160;8.202;2022-09-06T04:57:05;17.50;99.90
41060;DHT22;26811;53.160;8.202;2022-09-06T05:02:06;17.50;99.90
41060;DHT22;26811;53.160;8.202;2022-09-06T05:07:07;17.50;99.90
41060;DHT22;26811;53.160;8.202;2022-09-06T05:12:08;17.60;99.90
41060;DHT22;26811;53.160;8.202;2022-09-06T05:17:08;17.70;99.90
41060;DHT22;26811;53.160;8.202;2022-09-06T05:22:10;17.70;99.90
41060;DHT22;26811;53.160;8.202;2022-09-06T05:27:11;17.70;99.90
41060;DHT22;26811;53.160;8.202;2022-09-06T05:32:12;17.70;99.90
41060;DHT22;26811;53.160;8.202;2022-09-06T05:37:12;17.80;99.90
41060;DHT22;26811;53.160;8.202;2022-09-06T05:42:13;17.80;99.90
41060;DHT22;26811;53.160;8.202;2022-09-06T05:47:13;17.90;99.90
41060;DHT22;26811;53.160;8.202;2022-09-06T05:52:15;17.60;99.90
41060;DHT22;26811;53.160;8.202;2022-09-06T05:57:16;16.50;99.90
41060;DHT22;26811;53.160;8.202;2022-09-06T06:02:17;15.80;99.90
41060;DHT22;26811;53.160;8.202;2022-09-06T06:07:17;15.30;99.90
41060;DHT22;26811;53.160;8.202;2022-09-06T06:12:17;15.10;99.90
41060;DHT22;26811;53.160;8.202;2022-09-06T06:17:18;15.00;99.90
41060;DHT22;26811;53.160;8.202;2022-09-06T06:22:19;14.90;99.90
41060;DHT22;26811;53.160;8.202;2022-09-06T06:27:19;14.80;99.90
41060;DHT22;26811;53.160;8.202;2022-09-06T06:32:20;14.90;99.90
41060;DHT22;26811;53.160;8.202;2022-09-06T06:37:20;14.90;99.90
41060;DHT22;26811;53.160;8.202;2022-09-06T06:42:21;14.80;99.90
41060;DHT22;26811;53.160;8.202;2022-09-06T06:47:21;14.80;99.90
41060;DHT22;26811;53.160;8.202;2022-09-06T06:52:22;14.90;99.90
41060;DHT22;26811;53.160;8.202;2022-09-06T06:57:23;14.80;99.90
41060;DHT22;26811;53.160;8.202;2022-09-06T07:02:24;14.70;99.90
41060;DHT22;26811;53.160;8.202;2022-09-06T07:07:24;14.60;99.90
41060;DHT22;26811;53.160;8.202;2022-09-06T07:12:25;14.70;99.90
41060;DHT22;26811;53.160;8.202;2022-09-06T07:17:25;14.70;99.90
41060;DHT22;26811;53.160;8.202;2022-09-06T07:22:26;14.80;99.90
41060;DHT22;26811;53.160;8.202;2022-09-06T07:27:26;15.00;99.90
41060;DHT22;26811;53.160;8.202;2022-09-06T07:32:27;15.10;99.90
41060;DHT22;26811;53.160;8.202;2022-09-06T07:37:27;15.20;99.90
41060;DHT22;26811;53.160;8.202;2022-09-06T07:42:30;15.30;99.90
41060;DHT22;26811;53.160;8.202;2022-09-06T07:47:30;15.30;99.90
41060;DHT22;26811;53.160;8.202;2022-09-06T07:52:31;15.40;99.90
41060;DHT22;26811;53.160;8.202;2022-09-06T07:57:31;15.40;99.90
41060;DHT22;26811;53.160;8.202;2022-09-06T08:02:32;15.60;99.90
41060;DHT22;26811;53.160;8.202;2022-09-06T08:07:32;15.80;99.90
41060;DHT22;26811;53.160;8.202;2022-09-06T08:12:33;16.10;99.90
41060;DHT22;26811;53.160;8.202;2022-09-06T08:17:34;16.10;99.90
41060;DHT22;26811;53.160;8.202;2022-09-06T08:22:35;16.10;99.90
41060;DHT22;26811;53.160;8.202;2022-09-06T08:27:35;16.10;99.90
41060;DHT22;26811;53.160;8.202;2022-09-06T08:32:36;16.20;99.90
41060;DHT22;26811;53.160;8.202;2022-09-06T08:37:38;16.30;99.90
41060;DHT22;26811;53.160;8.202;2022-09-06T08:42:38;16.30;99.90
41060;DHT22;26811;53.160;8.202;2022-09-06T08:47:39;16.50;99.90
41060;DHT22;26811;53.160;8.202;2022-09-06T08:53:03;16.70;99.90
41060;DHT22;26811;53.160;8.202;2022-09-06T08:58:30;16.90;99.90
41060;DHT22;26811;53.160;8.202;2022-09-06T09:03:35;16.90;99.90
41060;DHT22;26811;53.160;8.202;2022-09-06T09:08:44;16.90;99.90
41060;DHT22;26811;53.160;8.202;2022-09-06T09:19:06;17.40;99.90
41060;DHT22;26811;53.160;8.202;2022-09-06T09:24:10;17.80;99.90
41060;DHT22;26811;53.160;8.202;2022-09-06T09:29:13;17.90;99.90
41060;DHT22;26811;53.160;8.202;2022-09-06T09:34:30;18.00;99.90
41060;DHT22;26811;53.160;8.202;2022-09-06T09:39:37;17.90;99.90
41060;DHT22;26811;53.160;8.202;2022-09-06T09:44:43;17.80;99.90
41060;DHT22;26811;53.160;8.202;2022-09-06T09:49:44;17.80;99.90
41060;DHT22;26811;53.160;8.202;2022-09-06T09:54:45;17.80;99.90
41060;DHT22;26811;53.160;8.202;2022-09-06T09:59:53;17.90;99.90
41060;DHT22;26811;53.160;8.202;2022-09-06T10:05:21;18.00;99.90
41060;DHT22;26811;53.160;8.202;2022-09-06T10:10:27;18.00;99.90
41060;DHT22;26811;53.160;8.202;2022-09-06T10:15:33;17.90;99.90
41060;DHT22;26811;53.160;8.202;2022-09-06T10:20:41;17.80;99.90
41060;DHT22;26811;53.160;8.202;2022-09-06T10:25:50;17.70;99.90
41060;DHT22;26811;53.160;8.202;2022-09-06T10:36:08;17.70;99.90
41060;DHT22;26811;53.160;8.202;2022-09-06T10:46:41;17.90;99.90
41060;DHT22;26811;53.160;8.202;2022-09-06T10:51:44;18.10;99.90
41060;DHT22;26811;53.160;8.202;2022-09-06T10:56:59;18.50;99.90
41060;DHT22;26811;53.160;8.202;2022-09-06T11:02:41;18.60;99.90
41060;DHT22;26811;53.160;8.202;2022-09-06T11:07:48;18.80;99.90
41060;DHT22;26811;53.160;8.202;2022-09-06T11:12:56;19.10;99.90
41060;DHT22;26811;53.160;8.202;2022-09-06T11:18:29;19.50;99.90
41060;DHT22;26811;53.160;8.202;2022-09-06T11:28:53;19.80;99.90
41060;DHT22;26811;53.160;8.202;2022-09-06T11:44:53;20.70;99.90
41060;DHT22;26811;53.160;8.202;2022-09-06T11:55:33;21.10;99.90
41060;DHT22;26811;53.160;8.202;2022-09-06T12:00:34;21.30;99.90
41060;DHT22;26811;53.160;8.202;2022-09-06T12:11:35;21.70;99.90
41060;DHT22;26811;53.160;8.202;2022-09-06T12:27:34;22.10;99.90
41060;DHT22;26811;53.160;8.202;2022-09-06T12:32:44;22.00;99.90
41060;DHT22;26811;53.160;8.202;2022-09-06T12:42:54;22.20;99.90
41060;DHT22;26811;53.160;8.202;2022-09-06T12:48:10;22.20;99.90
41060;DHT22;26811;53.160;8.202;2022-09-06T12:53:21;22.60;99.90
41060;DHT22;26811;53.160;8.202;2022-09-06T12:58:28;22.70;99.90
41060;DHT22;26811;53.160;8.202;2022-09-06T13:03:42;22.60;99.90
41060;DHT22;26811;53.160;8.202;2022-09-06T13:08:51;22.60;99.90
41060;DHT22;26811;53.160;8.202;2022-09-06T13:13:53;22.90;99.90
41060;DHT22;26811;53.160;8.202;2022-09-06T13:18:54;22.90;99.90
41060;DHT22;26811;53.160;8.202;2022-09-06T13:24:42;22.90;99.90
41060;DHT22;26811;53.160;8.202;2022-09-06T13:29:53;22.80;99.90
41060;DHT22;26811;53.160;8.202;2022-09-06T13:34:57;23.10;99.90
41060;DHT22;26811;53.160;8.202;2022-09-06T13:39:58;23.00;99.90
41060;DHT22;26811;53.160;8.202;2022-09-06T13:45:24;23.20;99.90
41060;DHT22;26811;53.160;8.202;2022-09-06T13:50:25;23.30;99.90
41060;DHT22;26811;53.160;8.202;2022-09-06T13:55:29;23.40;99.90
41060;DHT22;26811;53.160;8.202;2022-09-06T14:00:30;23.40;99.90
41060;DHT22;26811;53.160;8.202;2022-09-06T14:05:31;23.40;99.90
41060;DHT22;26811;53.160;8.202;2022-09-06T14:10:33;23.40;99.90
41060;DHT22;26811;53.160;8.202;2022-09-06T14:15:34;23.60;99.90
41060;DHT22;26811;53.160;8.202;2022-09-06T14:20:37;23.50;99.90
41060;DHT22;26811;53.160;8.202;2022-09-06T14:25:38;23.40;99.90
41060;DHT22;26811;53.160;8.202;2022-09-06T14:30:39;23.50;99.90
41060;DHT22;26811;53.160;8.202;2022-09-06T14:35:39;23.30;99.90
41060;DHT22;26811;53.160;8.202;2022-09-06T14:40:41;23.40;99.90
41060;DHT22;26811;53.160;8.202;2022-09-06T14:45:44;23.50;99.90
41060;DHT22;26811;53.160;8.202;2022-09-06T14:50:47;23.50;99.90
41060;DHT22;26811;53.160;8.202;2022-09-06T14:55:48;23.50;99.90
41060;DHT22;26811;53.160;8.202;2022-09-06T15:00:48;23.50;99.90
41060;DHT22;26811;53.160;8.202;2022-09-06T15:05:49;23.50;99.90
41060;DHT22;26811;53.160;8.202;2022-09-06T15:10:56;23.40;99.90
41060;DHT22;26811;53.160;8.202;2022-09-06T15:15:57;23.40;99.90
41060;DHT22;26811;53.160;8.202;2022-09-06T15:21:08;23.40;99.90
41060;DHT22;26811;53.160;8.202;2022-09-06T15:26:10;23.20;99.90
41060;DHT22;26811;53.160;8.202;2022-09-06T15:31:12;23.20;99.90
41060;DHT22;26811;53.160;8.202;2022-09-06T15:36:13;23.10;99.90
41060;DHT22;26811;53.160;8.202;2022-09-06T15:41:16;23.20;99.90
41060;DHT22;26811;53.160;8.202;2022-09-06T15:46:20;23.20;99.90
41060;DHT22;26811;53.160;8.202;2022-09-06T15:51:39;23.20;99.90
41060;DHT22;26811;53.160;8.202;2022-09-06T15:56:42;23.00;99.90
41060;DHT22;26811;53.160;8.202;2022-09-06T16:01:43;23.00;99.90
41060;DHT22;26811;53.160;8.202;2022-09-06T16:06:44;22.90;99.90
41060;DHT22;26811;53.160;8.202;2022-09-06T16:11:45;22.80;99.90
41060;DHT22;26811;53.160;8.202;2022-09-06T16:16:45;22.60;99.90
41060;DHT22;26811;53.160;8.202;2022-09-06T16:21:46;22.30;99.90
41060;DHT22;26811;53.160;8.202;2022-09-06T16:26:47;22.20;99.90
41060;DHT22;26811;53.160;8.202;2022-09-06T16:31:47;22.00;99.90
41060;DHT22;26811;53.160;8.202;2022-09-06T16:36:48;21.90;99.90
41060;DHT22;26811;53.160;8.202;2022-09-06T16:41:49;21.80;99.90
41060;DHT22;26811;53.160;8.202;2022-09-06T16:46:49;21.70;99.90
41060;DHT22;26811;53.160;8.202;2022-09-06T16:51:52;21.60;99.90
41060;DHT22;26811;53.160;8.202;2022-09-06T16:56:52;21.40;99.90
41060;DHT22;26811;53.160;8.202;2022-09-06T17:01:53;21.30;99.90
41060;DHT22;26811;53.160;8.202;2022-09-06T17:06:55;21.20;99.90
41060;DHT22;26811;53.160;8.202;2022-09-06T17:11:55;21.10;99.90
41060;DHT22;26811;53.160;8.202;2022-09-06T17:16:56;20.90;99.90
41060;DHT22;26811;53.160;8.202;2022-09-06T17:22:07;20.80;99.90
41060;DHT22;26811;53.160;8.202;2022-09-06T17:27:09;20.60;99.90
41060;DHT22;26811;53.160;8.202;2022-09-06T17:32:10;20.50;99.90
41060;DHT22;26811;53.160;8.202;2022-09-06T17:37:11;20.30;99.90
41060;DHT22;26811;53.160;8.202;2022-09-06T17:42:11;20.10;99.90
41060;DHT22;26811;53.160;8.202;2022-09-06T17:47:12;20.00;99.90
41060;DHT22;26811;53.160;8.202;2022-09-06T17:52:13;19.90;99.90
41060;DHT22;26811;53.160;8.202;2022-09-06T17:57:13;19.70;99.90
41060;DHT22;26811;53.160;8.202;2022-09-06T18:02:14;19.60;99.90
41060;DHT22;26811;53.160;8.202;2022-09-06T18:07:14;19.40;99.90
41060;DHT22;26811;53.160;8.202;2022-09-06T18:12:15;19.40;99.90
41060;DHT22;26811;53.160;8.202;2022-09-06T18:17:16;19.20;99.90
41060;DHT22;26811;53.160;8.202;2022-09-06T18:22:17;19.10;99.90
41060;DHT22;26811;53.160;8.202;2022-09-06T18:27:17;19.10;99.90
41060;DHT22;26811;53.160;8.202;2022-09-06T18:32:18;19.00;99.90
41060;DHT22;26811;53.160;8.202;2022-09-06T18:37:18;18.90;99.90
41060;DHT22;26811;53.160;8.202;2022-09-06T18:42:19;18.70;99.90
41060;DHT22;26811;53.160;8.202;2022-09-06T18:47:20;18.70;99.90
41060;DHT22;26811;53.160;8.202;2022-09-06T18:52:21;18.60;99.90
41060;DHT22;26811;53.160;8.202;2022-09-06T18:57:22;18.50;99.90
41060;DHT22;26811;53.160;8.202;2022-09-06T19:02:22;18.50;99.90
41060;DHT22;26811;53.160;8.202;2022-09-06T19:07:25;18.40;99.90
41060;DHT22;26811;53.160;8.202;2022-09-06T19:12:27;18.30;99.90
41060;DHT22;26811;53.160;8.202;2022-09-06T19:17:27;18.30;99.90
41060;DHT22;26811;53.160;8.202;2022-09-06T19:22:28;18.20;99.90
41060;DHT22;26811;53.160;8.202;2022-09-06T19:27:28;18.20;99.90
41060;DHT22;26811;53.160;8.202;2022-09-06T19:32:29;18.10;99.90
41060;DHT22;26811;53.160;8.202;2022-09-06T19:37:29;18.00;99.90
41060;DHT22;26811;53.160;8.202;2022-09-06T19:42:30;18.00;99.90
41060;DHT22;26811;53.160;8.202;2022-09-06T19:47:30;18.00;99.90
41060;DHT22;26811;53.160;8.202;2022-09-06T19:52:31;17.90;99.90
41060;DHT22;26811;53.160;8.202;2022-09-06T19:57:31;17.80;99.90
41060;DHT22;26811;53.160;8.202;2022-09-06T20:02:32;17.80;99.90
41060;DHT22;26811;53.160;8.202;2022-09-06T20:07:32;17.80;99.90
41060;DHT22;26811;53.160;8.202;2022-09-06T20:12:33;17.70;99.90
41060;DHT22;26811;53.160;8.202;2022-09-06T20:17:33;17.70;99.90
41060;DHT22;26811;53.160;8.202;2022-09-06T20:22:34;17.60;99.90
41060;DHT22;26811;53.160;8.202;2022-09-06T20:27:34;17.60;99.90
41060;DHT22;26811;53.160;8.202;2022-09-06T20:32:35;17.50;99.90
41060;DHT22;26811;53.160;8.202;2022-09-06T20:37:35;17.50;99.90
41060;DHT22;26811;53.160;8.202;2022-09-06T20:42:38;17.50;99.90
41060;DHT22;26811;53.160;8.202;2022-09-06T20:47:41;17.40;99.90
41060;DHT22;26811;53.160;8.202;2022-09-06T20:52:41;17.40;99.90
41060;DHT22;26811;53.160;8.202;2022-09-06T20:57:42;17.30;99.90
41060;DHT22;26811;53.160;8.202;2022-09-06T21:02:42;17.30;99.90
41060;DHT22;26811;53.160;8.202;2022-09-06T21:07:43;17.30;99.90
41060;DHT22;26811;53.160;8.202;2022-09-06T21:12:43;17.20;99.90
41060;DHT22;26811;53.160;8.202;2022-09-06T21:17:44;17.10;99.90
41060;DHT22;26811;53.160;8.202;2022-09-06T21:22:45;17.10;99.90
41060;DHT22;26811;53.160;8.202;2022-09-06T21:27:45;17.00;99.90
41060;DHT22;26811;53.160;8.202;2022-09-06T21:32:46;16.90;99.90
41060;DHT22;26811;53.160;8.202;2022-09-06T21:37:47;16.80;99.90
41060;DHT22;26811;53.160;8.202;2022-09-06T21:42:47;16.80;99.90
41060;DHT22;26811;53.160;8.202;2022-09-06T21:47:48;16.70;99.90
41060;DHT22;26811;53.160;8.202;2022-09-06T21:52:49;16.60;99.90
41060;DHT22;26811;53.160;8.202;2022-09-06T21:57:51;16.50;99.90
41060;DHT22;26811;53.160;8.202;2022-09-06T22:02:51;16.50;99.90
41060;DHT22;26811;53.160;8.202;2022-09-06T22:07:52;16.40;99.90
41060;DHT22;26811;53.160;8.202;2022-09-06T22:12:53;16.40;99.90
41060;DHT22;26811;53.160;8.202;2022-09-06T22:17:53;16.40;99.90
41060;DHT22;26811;53.160;8.202;2022-09-06T22:22:54;16.30;99.90
41060;DHT22;26811;53.160;8.202;2022-09-06T22:27:54;16.30;99.90
41060;DHT22;26811;53.160;8.202;2022-09-06T22:32:55;16.30;99.90
41060;DHT22;26811;53.160;8.202;2022-09-06T22:37:55;16.20;99.90
41060;DHT22;26811;53.160;8.202;2022-09-06T22:42:56;16.20;99.90
41060;DHT22;26811;53.160;8.202;2022-09-06T22:47:56;16.10;99.90
41060;DHT22;26811;53.160;8.202;2022-09-06T22:52:57;16.10;99.90
41060;DHT22;26811;53.160;8.202;2022-09-06T22:57:57;16.10;99.90
41060;DHT22;26811;53.160;8.202;2022-09-06T23:02:58;16.10;99.90
41060;DHT22;26811;53.160;8.202;2022-09-06T23:07:58;16.10;99.90
41060;DHT22;26811;53.160;8.202;2022-09-06T23:13:01;16.10;99.90
41060;DHT22;26811;53.160;8.202;2022-09-06T23:18:02;16.10;99.90
41060;DHT22;26811;53.160;8.202;2022-09-06T23:23:03;16.10;99.90
41060;DHT22;26811;53.160;8.202;2022-09-06T23:28:04;16.10;99.90
41060;DHT22;26811;53.160;8.202;2022-09-06T23:33:05;16.10;99.90
41060;DHT22;26811;53.160;8.202;2022-09-06T23:38:06;16.10;99.90
41060;DHT22;26811;53.160;8.202;2022-09-06T23:43:06;16.00;99.90
41060;DHT22;26811;53.160;8.202;2022-09-06T23:48:07;16.00;99.90
41060;DHT22;26811;53.160;8.202;2022-09-06T23:53:09;16.00;99.90
41060;DHT22;26811;53.160;8.202;2022-09-06T23:58:10;16.00;99.90
